createdAt,value
2019-05-16T00:11:51.854Z,1.60
2019-05-16T00:14:20.782Z,1.50
2019-05-16T00:16:49.784Z,1.70
2019-05-16T00:19:19.017Z,1.60
2019-05-16T00:21:48.691Z,1.70
2019-05-16T00:24:18.789Z,1.60
2019-05-16T00:29:18.390Z,1.65
2019-05-16T00:35:31.643Z,1.73
2019-05-16T00:37:59.753Z,1.90
2019-05-16T00:42:08.776Z,1.80
2019-05-16T00:44:38.734Z,1.90
2019-05-16T00:47:08.707Z,1.85
2019-05-16T00:52:07.886Z,1.60
2019-05-16T00:54:38.531Z,1.70
2019-05-16T00:57:09.044Z,1.60
2019-05-16T00:59:39.954Z,1.40
2019-05-16T01:02:09.151Z,1.80
2019-05-16T01:05:14.478Z,2.10
2019-05-16T01:07:44.157Z,2.00
2019-05-16T01:10:18.133Z,1.70
2019-05-16T01:12:48.025Z,1.55
2019-05-16T01:15:18.868Z,1.50
2019-05-16T01:18:28.520Z,1.40
2019-05-16T01:20:58.797Z,1.80
2019-05-16T01:23:30.351Z,1.70
2019-05-16T01:25:59.045Z,1.70
2019-05-16T01:28:28.803Z,1.70
2019-05-16T01:30:57.999Z,1.60
2019-05-16T01:33:28.093Z,2.00
2019-05-16T01:35:58.491Z,2.00
2019-05-16T01:38:28.481Z,1.70
2019-05-16T01:43:28.875Z,1.50
2019-05-16T01:45:57.796Z,1.90
2019-05-16T01:48:28.985Z,1.70
2019-05-16T01:50:58.411Z,1.75
2019-05-16T01:55:58.118Z,1.90
2019-05-16T01:58:29.130Z,1.80
2019-05-16T02:03:30.399Z,1.70
2019-05-16T02:05:59.744Z,1.65
2019-05-16T02:08:29.689Z,1.60
2019-05-16T02:10:59.411Z,1.60
2019-05-16T02:13:30.766Z,1.90
2019-05-16T02:16:02.557Z,1.90
2019-05-16T02:18:31.662Z,1.30
2019-05-16T02:21:01.683Z,1.80
2019-05-16T02:23:30.616Z,1.55
2019-05-16T02:26:02.296Z,1.85
2019-05-16T02:28:39.782Z,1.80
2019-05-16T02:33:14.163Z,1.73
2019-05-16T02:38:11.788Z,1.95
2019-05-16T02:40:41.917Z,1.85
2019-05-16T02:43:12.526Z,1.60
2019-05-16T02:50:24.410Z,1.50
2019-05-16T02:52:52.149Z,1.70
2019-05-16T02:55:21.857Z,1.80
2019-05-16T02:57:51.306Z,1.70
2019-05-16T03:00:33.239Z,1.60
2019-05-16T03:03:02.311Z,2.10
2019-05-16T03:05:31.248Z,2.10
2019-05-16T03:08:01.302Z,1.60
2019-05-16T03:10:31.182Z,2.00
2019-05-16T03:13:00.857Z,1.95
2019-05-16T03:15:30.909Z,1.80
2019-05-16T03:18:00.446Z,1.70
2019-05-16T03:20:31.907Z,1.90
2019-05-16T03:23:02.250Z,1.70
2019-05-16T03:25:31.415Z,1.77
2019-05-16T03:28:01.848Z,2.00
2019-05-16T03:30:34.924Z,1.90
2019-05-16T03:33:04.769Z,2.10
2019-05-16T03:35:33.964Z,2.05
2019-05-16T03:38:05.559Z,1.95
2019-05-16T03:40:32.017Z,1.75
2019-05-16T03:43:01.584Z,1.85
2019-05-16T03:45:32.040Z,1.95
2019-05-16T03:48:02.812Z,1.75
2019-05-16T03:50:30.810Z,1.95
2019-05-16T03:53:01.514Z,2.10
2019-05-16T03:55:32.357Z,2.13
2019-05-16T04:00:52.139Z,2.00
2019-05-16T04:03:21.448Z,2.00
2019-05-16T04:05:52.662Z,2.00
2019-05-16T04:08:24.774Z,1.90
2019-05-16T04:10:52.072Z,1.80
2019-05-16T04:13:22.178Z,2.05
2019-05-16T04:15:52.402Z,1.90
2019-05-16T04:19:51.294Z,1.73
2019-05-16T04:22:21.449Z,1.87
2019-05-16T04:24:51.293Z,1.90
2019-05-16T04:27:21.221Z,1.73
2019-05-16T04:29:51.338Z,2.02
2019-05-16T04:32:20.872Z,1.87
2019-05-16T04:34:50.936Z,2.00
2019-05-16T04:37:24.063Z,2.00
2019-05-16T04:39:50.748Z,1.75
2019-05-16T04:42:21.406Z,1.87
2019-05-16T04:44:51.566Z,1.80
2019-05-16T04:47:21.083Z,2.20
2019-05-16T04:49:51.784Z,1.80
2019-05-16T04:52:21.525Z,2.00
2019-05-16T04:54:51.208Z,2.10
2019-05-16T04:57:20.969Z,2.20
2019-05-16T04:59:50.849Z,1.67
2019-05-16T05:02:21.380Z,1.80
2019-05-16T05:04:50.899Z,1.90
2019-05-16T05:07:20.659Z,2.20
2019-05-16T05:09:51.160Z,2.25
2019-05-16T05:12:20.815Z,2.23
2019-05-16T05:14:50.800Z,2.30
2019-05-16T05:17:17.145Z,2.60
2019-05-16T05:19:45.237Z,2.90
2019-05-16T05:23:41.807Z,2.45
2019-05-16T05:26:10.897Z,1.80
2019-05-16T05:28:40.181Z,2.35
2019-05-16T05:31:10.619Z,2.20
2019-05-16T05:33:41.374Z,2.30
2019-05-16T05:36:12.026Z,2.60
2019-05-16T05:38:40.196Z,2.10
2019-05-16T05:41:10.564Z,2.22
2019-05-16T05:43:39.741Z,2.50
2019-05-16T05:46:10.928Z,2.50
2019-05-16T05:48:40.891Z,2.30
2019-05-16T05:51:11.237Z,2.10
2019-05-16T05:53:40.205Z,1.50
2019-05-16T05:56:11.279Z,2.13
2019-05-16T05:58:37.761Z,2.40
2019-05-16T06:01:05.872Z,2.10
2019-05-16T06:03:33.931Z,2.10
2019-05-16T06:06:02.069Z,2.20
2019-05-16T06:08:30.851Z,2.30
2019-05-16T06:11:00.791Z,2.40
2019-05-16T06:13:31.622Z,2.50
2019-05-16T06:16:00.349Z,2.47
2019-05-16T06:18:30.811Z,2.20
2019-05-16T06:21:00.472Z,2.30
2019-05-16T06:23:31.099Z,2.15
2019-05-16T06:26:00.428Z,1.95
2019-05-16T06:28:30.771Z,2.20
2019-05-16T06:31:01.843Z,2.00
2019-05-16T06:33:30.564Z,1.90
2019-05-16T06:36:00.251Z,2.23
2019-05-16T06:38:30.146Z,1.90
2019-05-16T06:41:00.070Z,2.40
2019-05-16T06:43:30.052Z,2.10
2019-05-16T06:46:00.338Z,2.40
2019-05-16T06:48:30.423Z,2.70
2019-05-16T06:51:02.562Z,2.40
2019-05-16T06:53:29.905Z,2.00
2019-05-16T06:56:00.192Z,2.73
2019-05-16T06:58:30.224Z,1.80
2019-05-16T07:01:00.422Z,2.40
2019-05-16T07:03:30.844Z,2.10
2019-05-16T07:06:00.534Z,2.20
2019-05-16T07:08:31.044Z,2.10
2019-05-16T07:10:59.998Z,2.00
2019-05-16T07:13:30.429Z,3.15
2019-05-16T07:16:00.460Z,2.40
2019-05-16T07:18:30.735Z,2.80
2019-05-16T07:21:00.026Z,2.35
2019-05-16T07:23:29.661Z,2.70
2019-05-16T07:25:57.944Z,2.20
2019-05-16T07:28:25.211Z,2.70
2019-05-16T07:30:53.742Z,2.50
2019-05-16T07:33:22.605Z,3.20
2019-05-16T07:35:51.639Z,2.40
2019-05-16T07:38:20.249Z,2.30
2019-05-16T07:40:51.259Z,2.40
2019-05-16T07:43:20.583Z,2.43
2019-05-16T07:45:51.313Z,2.53
2019-05-16T07:48:21.662Z,2.20
2019-05-16T07:50:50.036Z,2.40
2019-05-16T07:53:21.128Z,2.45
2019-05-16T07:55:50.864Z,2.60
2019-05-16T07:58:21.832Z,2.90
2019-05-16T08:00:57.787Z,2.23
2019-05-16T08:03:19.947Z,2.85
2019-05-16T08:08:23.259Z,2.13
2019-05-16T08:10:51.271Z,2.50
2019-05-16T08:13:21.039Z,2.30
2019-05-16T08:15:50.696Z,2.30
2019-05-16T08:20:52.015Z,2.30
2019-05-16T08:23:21.855Z,2.20
2019-05-16T08:26:40.014Z,2.70
2019-05-16T08:31:15.543Z,2.70
2019-05-16T08:33:43.619Z,2.75
2019-05-16T08:36:12.184Z,2.10
2019-05-16T08:38:43.010Z,2.60
2019-05-16T08:43:41.444Z,2.77
2019-05-16T08:46:12.357Z,2.80
2019-05-16T08:48:42.249Z,2.23
2019-05-16T08:50:09.836Z,2.30
2019-05-16T08:51:12.123Z,2.80
2019-05-16T08:56:12.403Z,2.40
2019-05-16T08:58:41.029Z,2.90
2019-05-16T09:02:06.754Z,2.50
2019-05-16T09:04:34.728Z,2.20
2019-05-16T09:07:03.987Z,2.23
2019-05-16T09:09:42.771Z,2.00
2019-05-16T09:10:31.817Z,2.10
2019-05-16T09:12:03.616Z,2.80
2019-05-16T09:17:02.015Z,2.35
2019-05-16T09:19:31.537Z,2.33
2019-05-16T09:21:59.450Z,2.50
2019-05-16T09:24:27.367Z,2.50
2019-05-16T09:26:57.876Z,3.15
2019-05-16T09:29:27.752Z,2.75
2019-05-16T09:32:11.342Z,3.10
2019-05-16T09:37:08.521Z,3.00
2019-05-16T09:39:37.173Z,2.95
2019-05-16T09:42:08.003Z,2.20
2019-05-16T09:44:36.997Z,1.80
2019-05-16T09:47:07.559Z,2.20
2019-05-16T09:49:37.094Z,2.70
2019-05-16T09:52:07.435Z,2.70
2019-05-16T09:57:02.471Z,2.40
2019-05-16T09:59:31.158Z,2.50
2019-05-16T10:01:59.530Z,2.40
2019-05-16T10:04:28.098Z,2.40
2019-05-16T10:06:57.367Z,2.60
2019-05-16T10:09:38.538Z,2.90
2019-05-16T10:12:08.244Z,2.73
2019-05-16T10:14:26.868Z,2.73
2019-05-16T10:16:54.592Z,2.20
2019-05-16T10:19:23.134Z,2.20
2019-05-16T10:21:52.202Z,2.00
2019-05-16T10:24:19.478Z,2.55
2019-05-16T10:26:53.654Z,2.90
2019-05-16T10:29:18.282Z,2.40
2019-05-16T10:31:52.609Z,2.10
2019-05-16T10:34:17.388Z,2.05
2019-05-16T10:36:47.181Z,2.55
2019-05-16T10:39:14.569Z,1.90
2019-05-16T10:42:06.926Z,2.30
2019-05-16T10:44:38.395Z,2.10
2019-05-16T10:47:07.543Z,2.50
2019-05-16T10:49:41.417Z,2.60
2019-05-16T10:52:08.638Z,2.20
2019-05-16T10:57:08.217Z,2.30
2019-05-16T11:02:08.465Z,2.50
2019-05-16T11:04:52.829Z,2.30
2019-05-16T11:07:07.012Z,2.25
2019-05-16T11:09:39.167Z,2.50
2019-05-16T11:14:33.196Z,3.00
2019-05-16T11:17:00.869Z,2.70
2019-05-16T11:19:29.774Z,2.80
2019-05-16T11:21:59.068Z,3.90
2019-05-16T11:24:29.339Z,2.40
2019-05-16T11:26:57.413Z,2.40
2019-05-16T11:29:26.866Z,2.37
2019-05-16T11:31:57.262Z,2.20
2019-05-16T11:34:26.627Z,2.40
2019-05-16T11:36:57.025Z,2.10
2019-05-16T11:39:26.561Z,2.10
2019-05-16T11:41:57.147Z,2.45
2019-05-16T11:44:28.361Z,2.43
2019-05-16T11:49:27.594Z,2.70
2019-05-16T11:51:57.894Z,2.10
2019-05-16T11:54:26.772Z,1.90
2019-05-16T11:56:57.057Z,2.50
2019-05-16T11:59:25.481Z,2.87
2019-05-16T12:01:53.284Z,2.30
2019-05-16T12:06:48.366Z,1.57
2019-05-16T12:11:46.216Z,1.90
2019-05-16T12:14:16.474Z,1.90
2019-05-16T12:16:47.017Z,2.33
2019-05-16T12:19:14.017Z,2.13
2019-05-16T12:24:08.834Z,2.23
2019-05-16T12:26:37.677Z,1.95
2019-05-16T12:29:07.017Z,2.20
2019-05-16T12:31:37.364Z,2.50
2019-05-16T12:34:08.989Z,2.20
2019-05-16T12:36:37.750Z,2.60
2019-05-16T12:39:07.951Z,2.20
2019-05-16T12:41:41.167Z,2.00
2019-05-16T12:44:07.843Z,2.40
2019-05-16T12:49:22.505Z,2.20
2019-05-16T12:51:51.608Z,2.20
2019-05-16T12:59:02.318Z,3.60
2019-05-16T13:01:34.371Z,3.47
2019-05-16T13:04:03.545Z,3.80
2019-05-16T13:06:31.050Z,4.10
2019-05-16T13:09:00.164Z,4.20
2019-05-16T13:11:29.975Z,4.10
2019-05-16T13:14:06.255Z,3.60
2019-05-16T13:16:29.724Z,3.30
2019-05-16T13:18:57.813Z,3.40
2019-05-16T13:21:27.685Z,3.30
2019-05-16T13:23:57.388Z,3.10
2019-05-16T13:26:26.186Z,3.02
2019-05-16T13:28:53.815Z,3.60
2019-05-16T13:31:23.403Z,3.35
2019-05-16T13:33:51.075Z,2.90
2019-05-16T13:36:19.095Z,3.45
2019-05-16T13:38:48.275Z,3.15
2019-05-16T13:41:18.470Z,3.00
2019-05-16T13:43:47.283Z,3.00
2019-05-16T13:46:17.186Z,3.40
2019-05-16T13:48:46.938Z,3.40
2019-05-16T13:51:19.096Z,3.20
2019-05-16T13:53:47.419Z,3.90
2019-05-16T13:56:17.644Z,3.00
2019-05-16T13:58:46.991Z,3.73
2019-05-16T14:01:17.128Z,3.40
2019-05-16T14:03:48.041Z,3.30
2019-05-16T14:06:18.459Z,3.90
2019-05-16T14:08:46.847Z,3.40
2019-05-16T14:11:14.732Z,3.75
2019-05-16T14:13:42.807Z,3.35
2019-05-16T14:16:10.983Z,3.40
2019-05-16T14:18:39.546Z,3.30
2019-05-16T14:21:08.026Z,3.95
2019-05-16T14:23:38.408Z,3.30
2019-05-16T14:26:07.106Z,3.20
2019-05-16T14:28:37.551Z,3.60
2019-05-16T14:31:07.156Z,3.30
2019-05-16T14:33:36.894Z,3.00
2019-05-16T14:36:07.280Z,3.53
2019-05-16T14:38:37.447Z,3.55
2019-05-16T14:41:07.780Z,2.90
2019-05-16T14:43:36.429Z,4.00
2019-05-16T14:46:07.117Z,2.70
2019-05-16T14:48:37.058Z,2.40
2019-05-16T14:51:05.861Z,5.33
2019-05-16T14:53:34.113Z,5.35
2019-05-16T14:56:02.071Z,4.10
2019-05-16T14:58:30.963Z,3.50
2019-05-16T15:00:59.900Z,3.53
2019-05-16T15:03:29.932Z,4.00
2019-05-16T15:05:59.181Z,4.57
2019-05-16T15:08:27.592Z,5.20
2019-05-16T15:10:58.427Z,4.25
2019-05-16T15:13:27.997Z,3.60
2019-05-16T15:15:57.803Z,5.55
2019-05-16T15:18:27.955Z,8.35
2019-05-16T15:20:58.265Z,7.95
2019-05-16T15:23:29.631Z,7.50
2019-05-16T15:25:59.990Z,5.10
2019-05-16T15:28:30.959Z,4.85
2019-05-16T15:31:01.043Z,4.90
2019-05-16T15:33:30.538Z,4.65
2019-05-16T15:36:00.450Z,4.35
2019-05-16T15:38:30.469Z,4.90
2019-05-16T15:41:00.873Z,4.10
2019-05-16T15:43:31.409Z,4.20
2019-05-16T15:46:01.307Z,4.10
2019-05-16T15:48:31.431Z,4.50
2019-05-16T15:51:00.940Z,3.90
2019-05-16T15:53:30.859Z,4.40
2019-05-16T15:56:00.761Z,3.83
2019-05-16T15:58:31.287Z,4.20
2019-05-16T16:01:00.623Z,3.85
2019-05-16T16:03:29.744Z,3.40
2019-05-16T16:06:00.626Z,3.90
2019-05-16T16:09:13.361Z,4.10
2019-05-16T16:11:43.258Z,3.75
2019-05-16T16:14:12.064Z,3.50
2019-05-16T16:16:42.320Z,3.90
2019-05-16T16:19:12.005Z,3.65
2019-05-16T16:21:41.967Z,2.90
2019-05-16T16:24:11.421Z,2.90
2019-05-16T16:26:41.825Z,2.65
2019-05-16T16:29:12.207Z,2.40
2019-05-16T16:31:41.204Z,3.07
2019-05-16T16:34:11.524Z,2.60
2019-05-16T16:36:41.439Z,2.43
2019-05-16T16:39:27.083Z,2.40
2019-05-16T16:41:57.207Z,2.30
2019-05-16T16:44:27.471Z,2.30
2019-05-16T16:46:57.988Z,2.30
2019-05-16T16:49:28.094Z,2.10
2019-05-16T16:54:27.556Z,2.00
2019-05-16T16:56:58.247Z,1.90
2019-05-16T16:59:28.447Z,2.15
2019-05-16T17:01:58.389Z,2.20
2019-05-16T17:05:13.457Z,2.10
2019-05-16T17:10:11.540Z,2.30
2019-05-16T17:12:42.494Z,2.10
2019-05-16T17:15:13.030Z,1.80
2019-05-16T17:17:42.989Z,2.35
2019-05-16T17:20:13.709Z,2.20
2019-05-16T17:22:43.315Z,1.70
2019-05-16T17:25:12.284Z,2.20
2019-05-16T17:27:41.688Z,2.05
2019-05-16T17:30:17.003Z,2.35
2019-05-16T17:32:46.739Z,2.25
2019-05-16T17:35:18.724Z,2.40
2019-05-16T17:37:47.915Z,2.05
2019-05-16T17:40:18.354Z,2.50
2019-05-16T17:42:48.420Z,2.10
2019-05-16T17:45:18.464Z,1.63
2019-05-16T17:47:48.136Z,2.10
2019-05-16T17:50:17.745Z,1.75
2019-05-16T17:52:48.004Z,1.80
2019-05-16T17:55:17.398Z,1.87
2019-05-16T17:57:47.906Z,1.80
2019-05-16T18:00:25.358Z,2.05
2019-05-16T18:02:49.187Z,2.10
2019-05-16T18:05:18.679Z,1.90
2019-05-16T18:07:49.266Z,1.60
2019-05-16T18:10:19.420Z,1.80
2019-05-16T18:12:49.790Z,1.80
2019-05-16T18:15:22.700Z,1.60
2019-05-16T18:17:51.908Z,2.50
2019-05-16T18:20:22.436Z,1.73
2019-05-16T18:22:52.293Z,2.00
2019-05-16T18:25:23.566Z,1.80
2019-05-16T18:27:53.095Z,1.50
2019-05-16T18:30:27.129Z,1.77
2019-05-16T18:35:27.272Z,1.90
2019-05-16T18:37:57.085Z,2.13
2019-05-16T18:40:27.113Z,2.20
2019-05-16T18:42:57.208Z,2.00
2019-05-16T18:45:27.462Z,1.70
2019-05-16T18:47:57.559Z,1.90
2019-05-16T18:50:27.142Z,1.90
2019-05-16T18:52:57.139Z,2.00
2019-05-16T18:55:27.737Z,2.10
2019-05-16T18:57:57.613Z,2.30
2019-05-16T19:00:27.927Z,1.90
2019-05-16T19:05:27.242Z,1.90
2019-05-16T19:07:57.048Z,2.05
2019-05-16T19:12:59.719Z,1.90
2019-05-16T19:15:28.272Z,2.30
2019-05-16T19:17:58.682Z,1.90
2019-05-16T19:22:58.868Z,2.15
2019-05-16T19:25:28.415Z,2.00
2019-05-16T19:27:58.404Z,2.40
2019-05-16T19:30:27.734Z,2.20
2019-05-16T19:33:41.032Z,2.50
2019-05-16T19:36:11.136Z,2.10
2019-05-16T19:38:41.108Z,2.20
2019-05-16T19:41:11.220Z,2.40
2019-05-16T19:43:42.260Z,2.10
2019-05-16T19:46:12.470Z,2.35
2019-05-16T19:48:46.331Z,2.30
2019-05-16T19:51:16.431Z,2.00
2019-05-16T19:56:17.865Z,2.40
2019-05-16T19:58:47.789Z,2.10
2019-05-16T20:01:17.466Z,2.20
2019-05-16T20:03:47.135Z,2.30
2019-05-16T20:06:17.030Z,2.03
2019-05-16T20:08:45.998Z,2.10
2019-05-16T20:11:16.888Z,2.30
2019-05-16T20:13:47.728Z,2.15
2019-05-16T20:16:18.654Z,1.70
2019-05-16T20:18:48.725Z,2.40
2019-05-16T20:23:47.833Z,1.70
2019-05-16T20:28:47.440Z,1.80
2019-05-16T20:31:17.342Z,2.15
2019-05-16T20:33:47.060Z,1.90
2019-05-16T20:36:17.303Z,1.95
2019-05-16T20:38:46.607Z,2.10
2019-05-16T20:41:17.101Z,2.20
2019-05-16T20:43:47.519Z,2.20
2019-05-16T20:46:16.869Z,2.10
2019-05-16T20:48:46.334Z,1.90
2019-05-16T20:51:16.903Z,2.60
2019-05-16T20:53:49.824Z,2.40
2019-05-16T20:56:19.536Z,2.40
2019-05-16T20:58:49.749Z,2.08
2019-05-16T21:01:19.180Z,1.90
2019-05-16T21:03:49.014Z,1.90
2019-05-16T21:06:18.649Z,2.30
2019-05-16T21:10:46.431Z,2.20
2019-05-16T21:13:17.295Z,2.15
2019-05-16T21:15:47.685Z,2.00
2019-05-16T21:18:17.813Z,2.10
2019-05-16T21:22:10.768Z,2.00
2019-05-16T21:24:40.664Z,2.10
2019-05-16T21:27:10.846Z,2.50
2019-05-16T21:29:39.803Z,2.30
2019-05-16T21:32:13.333Z,2.80
2019-05-16T21:34:42.801Z,2.40
2019-05-16T21:37:17.195Z,2.70
2019-05-16T21:42:16.487Z,2.40
2019-05-16T21:44:46.672Z,3.10
2019-05-16T21:47:16.862Z,2.90
2019-05-16T21:49:47.315Z,2.50
2019-05-16T21:52:18.225Z,2.65
2019-05-16T21:54:48.314Z,2.30
2019-05-16T21:57:19.958Z,2.60
2019-05-16T22:02:20.577Z,2.40
2019-05-16T22:04:50.609Z,2.50
2019-05-16T22:09:51.230Z,2.80
2019-05-16T22:12:40.474Z,2.70
2019-05-16T22:15:10.539Z,2.30
2019-05-16T22:17:41.823Z,2.60
2019-05-16T22:20:12.004Z,2.65
2019-05-16T22:22:42.267Z,2.45
2019-05-16T22:27:41.150Z,2.07
2019-05-16T22:30:13.236Z,3.00
2019-05-16T22:32:43.334Z,2.20
2019-05-16T22:35:12.931Z,3.05
2019-05-16T22:37:52.060Z,2.60
2019-05-16T22:40:13.952Z,2.70
2019-05-16T22:42:42.627Z,3.00
2019-05-16T22:45:13.483Z,3.10
2019-05-16T22:47:42.811Z,2.90
2019-05-16T22:50:12.319Z,2.70
2019-05-16T22:52:42.133Z,2.60
2019-05-16T22:55:11.384Z,2.67
2019-05-16T22:57:40.804Z,2.37
2019-05-16T23:00:13.067Z,2.50
2019-05-16T23:02:42.521Z,2.05
2019-05-16T23:05:11.754Z,2.70
2019-05-16T23:08:10.710Z,2.33
2019-05-16T23:10:41.575Z,2.20
2019-05-16T23:18:09.958Z,2.10
2019-05-16T23:20:39.396Z,2.40
2019-05-16T23:23:08.711Z,2.70
2019-05-16T23:28:07.639Z,2.87
2019-05-16T23:30:38.318Z,2.50
2019-05-16T23:33:07.488Z,2.50
2019-05-16T23:35:37.702Z,2.40
2019-05-16T23:38:18.524Z,2.30
2019-05-16T23:40:38.138Z,2.35
2019-05-16T23:45:37.651Z,2.70
2019-05-16T23:48:10.260Z,3.00
2019-05-16T23:50:37.796Z,2.50
2019-05-16T23:53:07.551Z,2.55
2019-05-16T23:55:37.146Z,2.55
2019-05-16T23:58:07.678Z,2.80
